createdAt,value
2017-11-16T00:06:36.397Z,1017.6
2017-11-16T00:16:51.284Z,1017.6
2017-11-16T00:27:05.689Z,1017.5
2017-11-16T00:37:21.635Z,1017.5
2017-11-16T00:47:37.563Z,1017.5
2017-11-16T00:57:52.311Z,1017.4
2017-11-16T01:08:07.744Z,1017.3
2017-11-16T01:18:23.892Z,1017.3
2017-11-16T01:28:39.270Z,1017.3
2017-11-16T01:38:53.847Z,1017.2
2017-11-16T01:49:09.062Z,1017.1
2017-11-16T01:59:23.776Z,1017.1
2017-11-16T02:09:38.898Z,1017.1
2017-11-16T02:19:54.603Z,1016.9
2017-11-16T02:30:10.708Z,1016.9
2017-11-16T02:40:25.810Z,1016.9
2017-11-16T02:50:40.649Z,1016.8
2017-11-16T03:00:55.373Z,1016.7
2017-11-16T03:11:10.373Z,1016.8
2017-11-16T03:21:26.127Z,1016.7
2017-11-16T03:31:42.119Z,1016.8
2017-11-16T03:41:57.837Z,1016.7
2017-11-16T03:52:12.371Z,1016.7
2017-11-16T04:02:28.242Z,1016.7
2017-11-16T04:12:44.402Z,1016.6
2017-11-16T04:22:59.595Z,1016.5
2017-11-16T04:33:15.473Z,1016.5
2017-11-16T04:43:30.954Z,1016.3
2017-11-16T04:53:46.632Z,1016.4
2017-11-16T05:04:02.806Z,1016.3
2017-11-16T05:14:18.290Z,1016.3
2017-11-16T05:24:33.633Z,1016.4
2017-11-16T05:34:49.235Z,1016.4
2017-11-16T05:45:05.190Z,1016.4
2017-11-16T05:55:20.504Z,1016.4
2017-11-16T06:05:35.686Z,1016.4
2017-11-16T06:15:50.780Z,1016.3
2017-11-16T06:26:05.504Z,1016.4
2017-11-16T06:36:21.649Z,1016.5
2017-11-16T06:46:37.558Z,1016.5
2017-11-16T06:56:53.416Z,1016.4
2017-11-16T07:07:08.435Z,1016.5
2017-11-16T07:17:23.817Z,1016.4
2017-11-16T07:27:39.974Z,1016.5
2017-11-16T07:37:55.105Z,1016.6
2017-11-16T07:48:10.083Z,1016.7
2017-11-16T07:58:24.491Z,1016.9
2017-11-16T08:08:39.334Z,1016.8
2017-11-16T08:18:54.321Z,1016.9
2017-11-16T08:29:09.689Z,1017
2017-11-16T08:39:25.975Z,1017.1
2017-11-16T08:49:42.036Z,1017.1
2017-11-16T08:59:58.378Z,1017.1
2017-11-16T09:10:14.137Z,1017.1
2017-11-16T09:20:29.749Z,1017
2017-11-16T09:30:45.596Z,1017
2017-11-16T09:41:00.995Z,1017
2017-11-16T09:51:15.949Z,1016.9
2017-11-16T10:01:30.564Z,1016.9
2017-11-16T10:11:45.859Z,1016.8
2017-11-16T10:22:00.734Z,1016.5
2017-11-16T10:32:16.723Z,1016.5
2017-11-16T10:42:31.940Z,1016.5
2017-11-16T10:52:48.290Z,1016.5
2017-11-16T11:03:02.877Z,1016.6
2017-11-16T11:13:17.595Z,1016.5
2017-11-16T11:23:32.933Z,1016.5
2017-11-16T11:33:48.724Z,1016.4
2017-11-16T11:44:04.283Z,1016.3
2017-11-16T11:54:19.547Z,1016.3
2017-11-16T12:04:35.398Z,1016.3
2017-11-16T12:14:49.839Z,1016.2
2017-11-16T12:25:05.430Z,1016.2
2017-11-16T12:35:20.722Z,1016.1
2017-11-16T12:45:35.373Z,1015.7
2017-11-16T12:55:51.201Z,1015.7
2017-11-16T13:06:05.622Z,1015.6
2017-11-16T13:16:20.618Z,1015.6
2017-11-16T13:26:36.414Z,1015.6
2017-11-16T13:36:51.149Z,1015.5
2017-11-16T13:47:07.195Z,1015.3
2017-11-16T13:57:22.809Z,1015.3
2017-11-16T14:07:38.695Z,1015.1
2017-11-16T14:17:54.110Z,1015
2017-11-16T14:28:08.606Z,1015
2017-11-16T14:38:24.300Z,1014.9
2017-11-16T14:48:38.861Z,1014.7
2017-11-16T14:58:54.501Z,1014.8
2017-11-16T15:09:11.553Z,1014.8
2017-11-16T15:19:25.495Z,1014.7
2017-11-16T15:29:40.028Z,1014.9
2017-11-16T15:39:54.588Z,1015
2017-11-16T15:50:10.024Z,1015
2017-11-16T16:00:25.066Z,1015
2017-11-16T16:10:39.793Z,1014.9
2017-11-16T16:20:55.522Z,1015
2017-11-16T16:31:11.031Z,1014.9
2017-11-16T16:41:27.302Z,1015
2017-11-16T16:51:43.238Z,1015
2017-11-16T17:01:59.591Z,1015
2017-11-16T17:12:15.595Z,1014.9
2017-11-16T17:22:30.551Z,1015.1
2017-11-16T17:32:46.218Z,1015.2
2017-11-16T17:43:01.045Z,1015.1
2017-11-16T17:53:17.225Z,1015.1
2017-11-16T18:03:31.778Z,1015.1
2017-11-16T18:13:46.900Z,1015.2
2017-11-16T18:24:01.419Z,1015.2
2017-11-16T18:34:17.408Z,1015.3
2017-11-16T18:44:32.995Z,1015.3
2017-11-16T18:54:48.045Z,1015.2
2017-11-16T19:05:02.511Z,1015.5
2017-11-16T19:15:18.334Z,1015.5
2017-11-16T19:25:34.567Z,1015.4
2017-11-16T19:35:49.255Z,1015.6
2017-11-16T19:46:03.731Z,1015.6
2017-11-16T19:56:18.172Z,1015.6
2017-11-16T20:06:33.844Z,1015.6
2017-11-16T20:16:48.437Z,1015.6
2017-11-16T20:27:03.386Z,1015.6
2017-11-16T20:37:18.221Z,1015.6
2017-11-16T20:47:32.618Z,1015.6
2017-11-16T20:57:48.933Z,1015.7
2017-11-16T21:08:03.803Z,1015.7
2017-11-16T21:18:19.920Z,1015.9
2017-11-16T21:28:34.276Z,1015.9
2017-11-16T21:38:50.356Z,1015.8
2017-11-16T21:49:04.797Z,1015.8
2017-11-16T21:59:19.270Z,1015.9
2017-11-16T22:09:33.959Z,1015.9
2017-11-16T22:19:50.066Z,1015.9
2017-11-16T22:30:06.093Z,1015.8
2017-11-16T22:40:22.238Z,1015.8
2017-11-16T22:50:38.197Z,1015.8
2017-11-16T23:00:53.710Z,1015.8
2017-11-16T23:11:09.431Z,1015.9
2017-11-16T23:21:23.859Z,1015.9
2017-11-16T23:31:40.102Z,1015.9
2017-11-16T23:41:55.263Z,1015.9
2017-11-16T23:52:11.567Z,1016.1
